TimeMDT,TemperatureF,Dew PointF,Humidity,Sea Level PressureIn,VisibilityMPH,Wind Direction,Wind SpeedMPH,Gust SpeedMPH,PrecipitationIn,Events,Conditions,WindDirDegrees,DateUTC
12:53 AM,63.0,24.1,23,29.77,10.0,ENE,5.8,-,N/A,,Partly Cloudy,60,2011-10-17 06:53:00
1:53 AM,60.1,24.1,25,29.77,10.0,Calm,Calm,-,N/A,,Clear,0,2011-10-17 07:53:00
2:53 AM,55.9,26.1,32,29.80,10.0,Calm,Calm,-,N/A,,Scattered Clouds,0,2011-10-17 08:53:00
3:53 AM,62.6,26.6,26,29.96,10.0,North,9.2,-,N/A,,Clear,360,2011-10-17 09:53:00
4:20 AM,60.8,33.8,36,30.00,10.0,WNW,25.3,32.2,0.00,Rain,Light Rain,300,2011-10-17 10:20:00
4:53 AM,61.0,36.0,39,29.85,10.0,NW,17.3,-,0.00,,Overcast,320,2011-10-17 10:53:00
5:32 AM,53.6,44.6,72,30.05,10.0,WSW,13.8,-,0.02,Rain,Light Rain,240,2011-10-17 11:32:00
5:53 AM,53.1,46.0,77,29.90,10.0,West,6.9,-,0.02,,Overcast,270,2011-10-17 11:53:00
6:53 AM,51.1,43.0,74,29.96,10.0,NNW,3.5,-,N/A,,Partly Cloudy,340,2011-10-17 12:53:00
7:53 AM,55.0,36.0,49,29.99,10.0,NNW,20.7,-,N/A,,Partly Cloudy,330,2011-10-17 13:53:00
8:53 AM,55.9,37.9,51,30.05,10.0,NW,13.8,-,N/A,,Partly Cloudy,310,2011-10-17 14:53:00
9:53 AM,59.0,37.0,44,30.07,10.0,WNW,15.0,-,N/A,,Scattered Clouds,300,2011-10-17 15:53:00
10:53 AM,60.1,34.0,38,30.09,10.0,NW,9.2,19.6,N/A,,Scattered Clouds,320,2011-10-17 16:53:00
11:53 AM,64.0,28.0,26,30.09,10.0,NNW,23.0,28.8,N/A,,Scattered Clouds,330,2011-10-17 17:53:00
12:53 PM,63.0,26.1,25,30.09,10.0,Variable,4.6,20.7,N/A,,Scattered Clouds,0,2011-10-17 18:53:00
1:53 PM,66.0,26.1,22,30.09,10.0,WNW,9.2,-,N/A,,Scattered Clouds,290,2011-10-17 19:53:00
2:53 PM,66.0,27.0,23,30.09,10.0,Calm,Calm,-,N/A,,Partly Cloudy,0,2011-10-17 20:53:00
3:53 PM,66.0,26.1,22,30.08,10.0,NW,5.8,-,N/A,,Partly Cloudy,320,2011-10-17 21:53:00
4:53 PM,66.0,26.1,22,30.07,10.0,North,4.6,-,N/A,,Clear,350,2011-10-17 22:53:00
5:53 PM,64.0,27.0,25,30.10,10.0,NE,6.9,-,N/A,,Clear,40,2011-10-17 23:53:00
6:53 PM,59.0,26.1,28,30.14,10.0,NE,12.7,-,N/A,,Clear,50,2011-10-18 00:53:00
7:53 PM,57.0,26.1,30,30.15,10.0,ENE,11.5,-,N/A,,Clear,70,2011-10-18 01:53:00
8:53 PM,55.9,26.1,32,30.15,10.0,NE,13.8,-,N/A,,Clear,50,2011-10-18 02:53:00
9:53 PM,55.0,26.1,33,30.17,10.0,NE,10.4,-,N/A,,Clear,50,2011-10-18 03:53:00
10:53 PM,55.0,26.1,33,30.17,10.0,Calm,Calm,-,N/A,,Clear,0,2011-10-18 04:53:00
11:53 PM,51.1,27.0,39,30.17,10.0,South,4.6,-,N/A,,Clear,180,2011-10-18 05:53:00